sensor_id;sensor_type;location;lat;lon;timestamp;P1;durP1;ratioP1;P2;durP2;ratioP2
43248;SDS011;29216;51.248;6.808;2023-05-15T00:01:35;16.75;;;11.27;;
43248;SDS011;29216;51.248;6.808;2023-05-15T00:04:01;20.17;;;13.60;;
43248;SDS011;29216;51.248;6.808;2023-05-15T00:06:28;28.27;;;15.48;;
43248;SDS011;29216;51.248;6.808;2023-05-15T00:08:54;17.70;;;14.27;;
43248;SDS011;29216;51.248;6.808;2023-05-15T00:11:20;22.52;;;16.02;;
43248;SDS011;29216;51.248;6.808;2023-05-15T00:13:47;22.38;;;17.20;;
43248;SDS011;29216;51.248;6.808;2023-05-15T00:16:13;25.88;;;16.20;;
43248;SDS011;29216;51.248;6.808;2023-05-15T00:18:39;23.98;;;15.52;;
43248;SDS011;29216;51.248;6.808;2023-05-15T00:21:05;21.77;;;15.60;;
43248;SDS011;29216;51.248;6.808;2023-05-15T00:23:31;21.73;;;16.10;;
43248;SDS011;29216;51.248;6.808;2023-05-15T00:25:57;20.58;;;14.15;;
43248;SDS011;29216;51.248;6.808;2023-05-15T00:28:23;20.63;;;13.13;;
43248;SDS011;29216;51.248;6.808;2023-05-15T00:30:49;19.20;;;13.57;;
43248;SDS011;29216;51.248;6.808;2023-05-15T00:33:16;17.98;;;13.55;;
43248;SDS011;29216;51.248;6.808;2023-05-15T00:35:42;23.00;;;15.98;;
43248;SDS011;29216;51.248;6.808;2023-05-15T00:38:08;21.30;;;15.38;;
43248;SDS011;29216;51.248;6.808;2023-05-15T00:40:34;20.70;;;14.82;;
43248;SDS011;29216;51.248;6.808;2023-05-15T00:43:01;18.52;;;14.73;;
43248;SDS011;29216;51.248;6.808;2023-05-15T00:45:27;22.23;;;16.48;;
43248;SDS011;29216;51.248;6.808;2023-05-15T00:47:53;27.23;;;16.15;;
43248;SDS011;29216;51.248;6.808;2023-05-15T00:50:20;27.27;;;16.48;;
43248;SDS011;29216;51.248;6.808;2023-05-15T00:52:46;22.63;;;16.48;;
43248;SDS011;29216;51.248;6.808;2023-05-15T00:55:13;27.13;;;18.92;;
43248;SDS011;29216;51.248;6.808;2023-05-15T00:57:40;25.70;;;18.35;;
43248;SDS011;29216;51.248;6.808;2023-05-15T01:00:06;28.38;;;19.23;;
43248;SDS011;29216;51.248;6.808;2023-05-15T01:02:35;31.15;;;20.90;;
43248;SDS011;29216;51.248;6.808;2023-05-15T01:05:01;30.65;;;22.83;;
43248;SDS011;29216;51.248;6.808;2023-05-15T01:07:29;32.63;;;22.95;;
43248;SDS011;29216;51.248;6.808;2023-05-15T01:09:57;38.22;;;23.77;;
43248;SDS011;29216;51.248;6.808;2023-05-15T01:12:24;36.30;;;26.85;;
43248;SDS011;29216;51.248;6.808;2023-05-15T01:14:51;37.70;;;25.30;;
43248;SDS011;29216;51.248;6.808;2023-05-15T01:17:17;35.30;;;24.95;;
43248;SDS011;29216;51.248;6.808;2023-05-15T01:19:43;40.30;;;26.23;;
43248;SDS011;29216;51.248;6.808;2023-05-15T01:30:26;38.25;;;25.05;;
43248;SDS011;29216;51.248;6.808;2023-05-15T01:32:54;32.78;;;24.45;;
43248;SDS011;29216;51.248;6.808;2023-05-15T01:37:53;39.92;;;25.05;;
43248;SDS011;29216;51.248;6.808;2023-05-15T01:40:20;38.00;;;23.90;;
43248;SDS011;29216;51.248;6.808;2023-05-15T01:42:57;35.28;;;23.98;;
43248;SDS011;29216;51.248;6.808;2023-05-15T01:45:25;32.00;;;22.05;;
43248;SDS011;29216;51.248;6.808;2023-05-15T01:47:52;37.13;;;24.33;;
43248;SDS011;29216;51.248;6.808;2023-05-15T01:50:19;39.60;;;25.48;;
43248;SDS011;29216;51.248;6.808;2023-05-15T01:52:46;34.97;;;24.67;;
43248;SDS011;29216;51.248;6.808;2023-05-15T01:55:13;29.02;;;22.95;;
43248;SDS011;29216;51.248;6.808;2023-05-15T01:57:40;32.92;;;24.10;;
43248;SDS011;29216;51.248;6.808;2023-05-15T02:00:06;34.42;;;25.17;;
43248;SDS011;29216;51.248;6.808;2023-05-15T02:02:34;40.42;;;24.15;;
43248;SDS011;29216;51.248;6.808;2023-05-15T02:05:00;35.70;;;24.05;;
43248;SDS011;29216;51.248;6.808;2023-05-15T02:07:26;33.58;;;22.35;;
43248;SDS011;29216;51.248;6.808;2023-05-15T02:09:53;31.45;;;21.60;;
43248;SDS011;29216;51.248;6.808;2023-05-15T02:12:19;29.70;;;20.83;;
43248;SDS011;29216;51.248;6.808;2023-05-15T02:14:45;38.90;;;21.20;;
43248;SDS011;29216;51.248;6.808;2023-05-15T02:17:13;31.15;;;20.30;;
43248;SDS011;29216;51.248;6.808;2023-05-15T02:19:39;22.95;;;18.73;;
43248;SDS011;29216;51.248;6.808;2023-05-15T02:22:05;26.67;;;19.55;;
43248;SDS011;29216;51.248;6.808;2023-05-15T02:24:31;25.17;;;18.75;;
43248;SDS011;29216;51.248;6.808;2023-05-15T02:27:07;23.15;;;17.90;;
43248;SDS011;29216;51.248;6.808;2023-05-15T02:37:30;23.92;;;18.00;;
43248;SDS011;29216;51.248;6.808;2023-05-15T02:39:57;27.50;;;18.65;;
43248;SDS011;29216;51.248;6.808;2023-05-15T02:42:28;24.15;;;17.73;;
43248;SDS011;29216;51.248;6.808;2023-05-15T02:44:54;23.75;;;16.60;;
43248;SDS011;29216;51.248;6.808;2023-05-15T02:47:22;21.30;;;17.15;;
43248;SDS011;29216;51.248;6.808;2023-05-15T02:49:48;23.20;;;17.65;;
43248;SDS011;29216;51.248;6.808;2023-05-15T02:52:14;27.05;;;17.67;;
43248;SDS011;29216;51.248;6.808;2023-05-15T02:54:41;22.02;;;16.88;;
43248;SDS011;29216;51.248;6.808;2023-05-15T02:57:07;23.35;;;16.42;;
43248;SDS011;29216;51.248;6.808;2023-05-15T02:59:33;22.63;;;16.80;;
43248;SDS011;29216;51.248;6.808;2023-05-15T03:01:59;22.05;;;17.08;;
43248;SDS011;29216;51.248;6.808;2023-05-15T03:04:27;24.85;;;17.10;;
43248;SDS011;29216;51.248;6.808;2023-05-15T03:06:53;23.38;;;17.00;;
43248;SDS011;29216;51.248;6.808;2023-05-15T03:09:19;23.33;;;18.60;;
43248;SDS011;29216;51.248;6.808;2023-05-15T03:11:45;22.88;;;17.77;;
43248;SDS011;29216;51.248;6.808;2023-05-15T03:14:11;31.55;;;18.63;;
43248;SDS011;29216;51.248;6.808;2023-05-15T03:16:37;23.50;;;17.42;;
43248;SDS011;29216;51.248;6.808;2023-05-15T03:19:03;27.45;;;18.77;;
43248;SDS011;29216;51.248;6.808;2023-05-15T03:21:30;30.52;;;19.80;;
43248;SDS011;29216;51.248;6.808;2023-05-15T03:23:56;24.75;;;18.92;;
43248;SDS011;29216;51.248;6.808;2023-05-15T03:26:22;27.83;;;19.27;;
43248;SDS011;29216;51.248;6.808;2023-05-15T03:28:48;27.30;;;20.20;;
43248;SDS011;29216;51.248;6.808;2023-05-15T03:31:14;26.50;;;20.83;;
43248;SDS011;29216;51.248;6.808;2023-05-15T03:33:40;29.33;;;20.40;;
43248;SDS011;29216;51.248;6.808;2023-05-15T03:36:07;26.17;;;21.17;;
43248;SDS011;29216;51.248;6.808;2023-05-15T03:38:33;28.65;;;21.30;;
43248;SDS011;29216;51.248;6.808;2023-05-15T03:40:59;28.23;;;19.80;;
43248;SDS011;29216;51.248;6.808;2023-05-15T03:43:25;26.90;;;20.02;;
43248;SDS011;29216;51.248;6.808;2023-05-15T03:45:51;29.98;;;21.55;;
43248;SDS011;29216;51.248;6.808;2023-05-15T03:48:17;35.95;;;22.13;;
43248;SDS011;29216;51.248;6.808;2023-05-15T03:50:43;27.88;;;20.30;;
43248;SDS011;29216;51.248;6.808;2023-05-15T03:53:09;28.70;;;21.73;;
43248;SDS011;29216;51.248;6.808;2023-05-15T03:55:35;31.80;;;22.05;;
43248;SDS011;29216;51.248;6.808;2023-05-15T03:58:01;29.33;;;22.98;;
43248;SDS011;29216;51.248;6.808;2023-05-15T04:00:28;33.22;;;22.33;;
43248;SDS011;29216;51.248;6.808;2023-05-15T04:02:54;34.13;;;23.38;;
43248;SDS011;29216;51.248;6.808;2023-05-15T04:05:20;37.83;;;25.02;;
43248;SDS011;29216;51.248;6.808;2023-05-15T04:07:46;44.13;;;27.10;;
43248;SDS011;29216;51.248;6.808;2023-05-15T04:10:12;58.83;;;31.90;;
43248;SDS011;29216;51.248;6.808;2023-05-15T04:12:38;57.15;;;31.60;;
43248;SDS011;29216;51.248;6.808;2023-05-15T04:15:14;52.70;;;29.63;;
43248;SDS011;29216;51.248;6.808;2023-05-15T04:17:41;46.60;;;26.98;;
43248;SDS011;29216;51.248;6.808;2023-05-15T04:20:07;67.97;;;34.97;;
43248;SDS011;29216;51.248;6.808;2023-05-15T04:22:36;65.95;;;35.63;;
43248;SDS011;29216;51.248;6.808;2023-05-15T04:25:02;70.00;;;37.72;;
43248;SDS011;29216;51.248;6.808;2023-05-15T04:27:28;57.72;;;34.20;;
43248;SDS011;29216;51.248;6.808;2023-05-15T04:29:54;55.78;;;31.08;;
43248;SDS011;29216;51.248;6.808;2023-05-15T04:32:20;63.00;;;35.60;;
43248;SDS011;29216;51.248;6.808;2023-05-15T04:34:46;63.28;;;35.78;;
43248;SDS011;29216;51.248;6.808;2023-05-15T04:37:12;61.30;;;34.95;;
43248;SDS011;29216;51.248;6.808;2023-05-15T04:39:38;72.72;;;36.95;;
43248;SDS011;29216;51.248;6.808;2023-05-15T04:42:04;77.82;;;38.00;;
43248;SDS011;29216;51.248;6.808;2023-05-15T04:44:30;78.22;;;39.15;;
43248;SDS011;29216;51.248;6.808;2023-05-15T04:46:57;81.47;;;40.08;;
43248;SDS011;29216;51.248;6.808;2023-05-15T04:49:24;74.57;;;37.88;;
43248;SDS011;29216;51.248;6.808;2023-05-15T04:51:50;73.95;;;35.03;;
43248;SDS011;29216;51.248;6.808;2023-05-15T04:54:16;65.90;;;35.20;;
43248;SDS011;29216;51.248;6.808;2023-05-15T04:56:44;59.38;;;35.97;;
43248;SDS011;29216;51.248;6.808;2023-05-15T04:59:10;55.97;;;33.00;;
43248;SDS011;29216;51.248;6.808;2023-05-15T05:01:37;57.65;;;33.55;;
43248;SDS011;29216;51.248;6.808;2023-05-15T05:04:03;53.53;;;32.13;;
43248;SDS011;29216;51.248;6.808;2023-05-15T05:06:29;50.30;;;31.05;;
43248;SDS011;29216;51.248;6.808;2023-05-15T05:08:55;46.85;;;30.20;;
43248;SDS011;29216;51.248;6.808;2023-05-15T05:11:21;43.30;;;28.95;;
43248;SDS011;29216;51.248;6.808;2023-05-15T05:13:47;42.63;;;27.92;;
43248;SDS011;29216;51.248;6.808;2023-05-15T05:16:13;48.67;;;29.33;;
43248;SDS011;29216;51.248;6.808;2023-05-15T05:18:40;39.55;;;26.52;;
43248;SDS011;29216;51.248;6.808;2023-05-15T05:21:06;45.72;;;27.35;;
43248;SDS011;29216;51.248;6.808;2023-05-15T05:23:32;42.50;;;25.17;;
43248;SDS011;29216;51.248;6.808;2023-05-15T05:25:58;37.13;;;24.48;;
43248;SDS011;29216;51.248;6.808;2023-05-15T05:28:24;31.48;;;22.33;;
43248;SDS011;29216;51.248;6.808;2023-05-15T05:30:50;31.40;;;21.08;;
43248;SDS011;29216;51.248;6.808;2023-05-15T05:33:16;28.73;;;21.80;;
43248;SDS011;29216;51.248;6.808;2023-05-15T05:35:42;31.65;;;21.00;;
43248;SDS011;29216;51.248;6.808;2023-05-15T05:38:08;27.02;;;21.15;;
43248;SDS011;29216;51.248;6.808;2023-05-15T05:40:34;32.50;;;21.35;;
43248;SDS011;29216;51.248;6.808;2023-05-15T05:43:02;29.73;;;21.13;;
43248;SDS011;29216;51.248;6.808;2023-05-15T05:45:28;29.67;;;21.35;;
43248;SDS011;29216;51.248;6.808;2023-05-15T05:47:55;30.70;;;20.77;;
43248;SDS011;29216;51.248;6.808;2023-05-15T05:50:21;29.73;;;21.40;;
43248;SDS011;29216;51.248;6.808;2023-05-15T05:52:47;27.83;;;20.20;;
43248;SDS011;29216;51.248;6.808;2023-05-15T05:55:13;28.02;;;20.55;;
43248;SDS011;29216;51.248;6.808;2023-05-15T05:57:39;35.05;;;23.20;;
43248;SDS011;29216;51.248;6.808;2023-05-15T06:00:06;38.60;;;24.25;;
43248;SDS011;29216;51.248;6.808;2023-05-15T06:02:35;28.58;;;21.02;;
43248;SDS011;29216;51.248;6.808;2023-05-15T06:05:02;31.35;;;22.45;;
43248;SDS011;29216;51.248;6.808;2023-05-15T06:07:28;26.98;;;20.60;;
43248;SDS011;29216;51.248;6.808;2023-05-15T06:09:54;28.55;;;20.70;;
43248;SDS011;29216;51.248;6.808;2023-05-15T06:12:20;32.05;;;20.77;;
43248;SDS011;29216;51.248;6.808;2023-05-15T06:14:46;29.67;;;20.48;;
43248;SDS011;29216;51.248;6.808;2023-05-15T06:17:12;26.35;;;19.50;;
43248;SDS011;29216;51.248;6.808;2023-05-15T06:19:38;29.67;;;20.42;;
43248;SDS011;29216;51.248;6.808;2023-05-15T06:22:04;28.27;;;19.98;;
43248;SDS011;29216;51.248;6.808;2023-05-15T06:24:30;26.40;;;19.83;;
43248;SDS011;29216;51.248;6.808;2023-05-15T06:26:56;27.33;;;19.48;;
43248;SDS011;29216;51.248;6.808;2023-05-15T06:29:22;27.15;;;20.35;;
43248;SDS011;29216;51.248;6.808;2023-05-15T06:31:48;27.88;;;21.05;;
43248;SDS011;29216;51.248;6.808;2023-05-15T06:34:14;28.88;;;20.30;;
43248;SDS011;29216;51.248;6.808;2023-05-15T06:36:40;27.10;;;20.25;;
43248;SDS011;29216;51.248;6.808;2023-05-15T06:39:06;24.30;;;20.05;;
43248;SDS011;29216;51.248;6.808;2023-05-15T06:41:34;26.80;;;21.55;;
43248;SDS011;29216;51.248;6.808;2023-05-15T06:44:01;27.10;;;21.80;;
43248;SDS011;29216;51.248;6.808;2023-05-15T06:46:27;28.75;;;20.58;;
43248;SDS011;29216;51.248;6.808;2023-05-15T06:48:53;28.23;;;21.35;;
43248;SDS011;29216;51.248;6.808;2023-05-15T06:51:19;27.63;;;20.52;;
43248;SDS011;29216;51.248;6.808;2023-05-15T06:53:45;26.98;;;20.65;;
43248;SDS011;29216;51.248;6.808;2023-05-15T06:56:11;27.27;;;20.58;;
43248;SDS011;29216;51.248;6.808;2023-05-15T06:58:37;29.27;;;21.30;;
43248;SDS011;29216;51.248;6.808;2023-05-15T07:01:03;30.20;;;21.58;;
43248;SDS011;29216;51.248;6.808;2023-05-15T07:03:30;29.85;;;22.55;;
43248;SDS011;29216;51.248;6.808;2023-05-15T07:05:56;30.13;;;22.63;;
43248;SDS011;29216;51.248;6.808;2023-05-15T07:08:22;31.42;;;22.08;;
43248;SDS011;29216;51.248;6.808;2023-05-15T07:10:48;28.73;;;21.58;;
43248;SDS011;29216;51.248;6.808;2023-05-15T07:13:18;25.92;;;20.02;;
43248;SDS011;29216;51.248;6.808;2023-05-15T07:15:44;26.40;;;19.42;;
43248;SDS011;29216;51.248;6.808;2023-05-15T07:18:10;28.10;;;19.45;;
43248;SDS011;29216;51.248;6.808;2023-05-15T07:20:36;21.98;;;17.55;;
43248;SDS011;29216;51.248;6.808;2023-05-15T07:23:02;23.65;;;16.80;;
43248;SDS011;29216;51.248;6.808;2023-05-15T07:25:28;18.90;;;15.63;;
43248;SDS011;29216;51.248;6.808;2023-05-15T07:27:55;20.88;;;15.13;;
43248;SDS011;29216;51.248;6.808;2023-05-15T07:30:21;19.70;;;14.95;;
43248;SDS011;29216;51.248;6.808;2023-05-15T07:32:47;18.88;;;14.38;;
43248;SDS011;29216;51.248;6.808;2023-05-15T07:35:13;15.73;;;13.55;;
43248;SDS011;29216;51.248;6.808;2023-05-15T07:37:39;15.80;;;14.13;;
43248;SDS011;29216;51.248;6.808;2023-05-15T07:40:05;17.38;;;13.60;;
43248;SDS011;29216;51.248;6.808;2023-05-15T07:42:32;20.77;;;14.63;;
43248;SDS011;29216;51.248;6.808;2023-05-15T07:44:58;18.60;;;14.13;;
43248;SDS011;29216;51.248;6.808;2023-05-15T07:47:24;22.60;;;13.75;;
43248;SDS011;29216;51.248;6.808;2023-05-15T07:49:50;18.63;;;13.30;;
43248;SDS011;29216;51.248;6.808;2023-05-15T07:52:16;19.10;;;15.05;;
43248;SDS011;29216;51.248;6.808;2023-05-15T07:54:42;15.07;;;13.20;;
43248;SDS011;29216;51.248;6.808;2023-05-15T07:57:08;16.52;;;14.63;;
43248;SDS011;29216;51.248;6.808;2023-05-15T07:59:34;17.42;;;12.60;;
43248;SDS011;29216;51.248;6.808;2023-05-15T08:02:01;22.27;;;14.05;;
43248;SDS011;29216;51.248;6.808;2023-05-15T08:04:27;14.25;;;12.15;;
43248;SDS011;29216;51.248;6.808;2023-05-15T08:06:53;14.68;;;12.93;;
43248;SDS011;29216;51.248;6.808;2023-05-15T08:09:19;17.33;;;14.15;;
43248;SDS011;29216;51.248;6.808;2023-05-15T08:11:45;16.98;;;12.32;;
43248;SDS011;29216;51.248;6.808;2023-05-15T08:14:13;13.95;;;11.02;;
43248;SDS011;29216;51.248;6.808;2023-05-15T08:16:39;14.20;;;12.70;;
43248;SDS011;29216;51.248;6.808;2023-05-15T08:19:05;16.85;;;13.55;;
43248;SDS011;29216;51.248;6.808;2023-05-15T08:21:31;16.73;;;12.15;;
43248;SDS011;29216;51.248;6.808;2023-05-15T08:23:58;14.25;;;12.75;;
43248;SDS011;29216;51.248;6.808;2023-05-15T08:26:25;13.80;;;11.98;;
43248;SDS011;29216;51.248;6.808;2023-05-15T08:28:51;13.32;;;11.82;;
43248;SDS011;29216;51.248;6.808;2023-05-15T08:31:17;16.98;;;12.18;;
43248;SDS011;29216;51.248;6.808;2023-05-15T08:33:43;12.00;;;10.50;;
43248;SDS011;29216;51.248;6.808;2023-05-15T08:36:09;19.42;;;13.93;;
43248;SDS011;29216;51.248;6.808;2023-05-15T08:38:35;16.83;;;11.30;;
43248;SDS011;29216;51.248;6.808;2023-05-15T08:41:03;14.57;;;13.00;;
43248;SDS011;29216;51.248;6.808;2023-05-15T08:43:31;11.80;;;9.65;;
43248;SDS011;29216;51.248;6.808;2023-05-15T08:45:59;12.23;;;10.80;;
43248;SDS011;29216;51.248;6.808;2023-05-15T08:48:25;11.68;;;10.48;;
43248;SDS011;29216;51.248;6.808;2023-05-15T08:50:53;14.27;;;11.65;;
43248;SDS011;29216;51.248;6.808;2023-05-15T08:53:21;12.02;;;9.77;;
43248;SDS011;29216;51.248;6.808;2023-05-15T08:55:48;14.30;;;10.30;;
43248;SDS011;29216;51.248;6.808;2023-05-15T08:58:14;13.70;;;10.73;;
43248;SDS011;29216;51.248;6.808;2023-05-15T09:00:45;12.07;;;10.88;;
43248;SDS011;29216;51.248;6.808;2023-05-15T09:03:14;14.50;;;11.15;;
43248;SDS011;29216;51.248;6.808;2023-05-15T09:05:42;13.93;;;10.35;;
43248;SDS011;29216;51.248;6.808;2023-05-15T09:08:08;13.77;;;11.70;;
43248;SDS011;29216;51.248;6.808;2023-05-15T09:10:34;15.68;;;12.43;;
43248;SDS011;29216;51.248;6.808;2023-05-15T09:13:00;13.40;;;12.00;;
43248;SDS011;29216;51.248;6.808;2023-05-15T09:15:27;14.68;;;11.30;;
43248;SDS011;29216;51.248;6.808;2023-05-15T09:17:54;12.60;;;11.30;;
43248;SDS011;29216;51.248;6.808;2023-05-15T09:20:33;14.93;;;11.90;;
43248;SDS011;29216;51.248;6.808;2023-05-15T09:23:01;12.35;;;11.10;;
43248;SDS011;29216;51.248;6.808;2023-05-15T09:27:59;15.63;;;11.90;;
43248;SDS011;29216;51.248;6.808;2023-05-15T09:30:26;15.60;;;13.18;;
43248;SDS011;29216;51.248;6.808;2023-05-15T09:32:52;16.65;;;13.27;;
43248;SDS011;29216;51.248;6.808;2023-05-15T09:35:34;14.00;;;12.50;;
43248;SDS011;29216;51.248;6.808;2023-05-15T09:38:02;16.23;;;12.48;;
43248;SDS011;29216;51.248;6.808;2023-05-15T09:40:28;14.32;;;11.02;;
43248;SDS011;29216;51.248;6.808;2023-05-15T09:42:55;15.80;;;11.55;;
43248;SDS011;29216;51.248;6.808;2023-05-15T09:45:21;13.70;;;10.18;;
43248;SDS011;29216;51.248;6.808;2023-05-15T09:47:50;12.98;;;10.32;;
43248;SDS011;29216;51.248;6.808;2023-05-15T09:50:20;12.50;;;11.05;;
43248;SDS011;29216;51.248;6.808;2023-05-15T09:52:47;14.00;;;12.60;;
43248;SDS011;29216;51.248;6.808;2023-05-15T09:55:16;19.23;;;14.63;;
43248;SDS011;29216;51.248;6.808;2023-05-15T09:57:43;21.45;;;13.13;;
43248;SDS011;29216;51.248;6.808;2023-05-15T10:00:09;21.63;;;14.95;;
43248;SDS011;29216;51.248;6.808;2023-05-15T10:02:38;17.27;;;13.18;;
43248;SDS011;29216;51.248;6.808;2023-05-15T10:05:05;19.23;;;12.63;;
43248;SDS011;29216;51.248;6.808;2023-05-15T10:07:35;15.57;;;11.13;;
43248;SDS011;29216;51.248;6.808;2023-05-15T10:10:01;14.75;;;10.55;;
43248;SDS011;29216;51.248;6.808;2023-05-15T10:12:28;13.20;;;9.65;;
43248;SDS011;29216;51.248;6.808;2023-05-15T10:14:56;16.10;;;11.88;;
43248;SDS011;29216;51.248;6.808;2023-05-15T10:17:22;13.43;;;10.32;;
43248;SDS011;29216;51.248;6.808;2023-05-15T10:19:48;11.98;;;10.18;;
43248;SDS011;29216;51.248;6.808;2023-05-15T10:22:18;16.55;;;10.95;;
43248;SDS011;29216;51.248;6.808;2023-05-15T10:24:47;17.70;;;11.07;;
43248;SDS011;29216;51.248;6.808;2023-05-15T10:27:15;15.40;;;10.93;;
43248;SDS011;29216;51.248;6.808;2023-05-15T10:29:42;14.02;;;11.40;;
43248;SDS011;29216;51.248;6.808;2023-05-15T10:32:09;15.63;;;12.90;;
43248;SDS011;29216;51.248;6.808;2023-05-15T10:34:35;15.27;;;12.35;;
43248;SDS011;29216;51.248;6.808;2023-05-15T10:37:01;18.98;;;12.52;;
43248;SDS011;29216;51.248;6.808;2023-05-15T10:39:27;16.02;;;12.82;;
43248;SDS011;29216;51.248;6.808;2023-05-15T10:41:53;19.33;;;12.75;;
43248;SDS011;29216;51.248;6.808;2023-05-15T10:44:21;18.73;;;15.25;;
43248;SDS011;29216;51.248;6.808;2023-05-15T10:46:48;16.83;;;12.55;;
43248;SDS011;29216;51.248;6.808;2023-05-15T10:49:14;18.95;;;13.45;;
43248;SDS011;29216;51.248;6.808;2023-05-15T10:51:40;15.60;;;12.48;;
43248;SDS011;29216;51.248;6.808;2023-05-15T10:54:07;15.65;;;12.00;;
43248;SDS011;29216;51.248;6.808;2023-05-15T10:56:33;15.80;;;12.55;;
43248;SDS011;29216;51.248;6.808;2023-05-15T10:59:05;13.52;;;10.57;;
43248;SDS011;29216;51.248;6.808;2023-05-15T11:01:33;12.93;;;9.95;;
43248;SDS011;29216;51.248;6.808;2023-05-15T11:06:31;15.70;;;9.55;;
43248;SDS011;29216;51.248;6.808;2023-05-15T11:11:52;14.90;;;10.75;;
43248;SDS011;29216;51.248;6.808;2023-05-15T11:14:24;14.27;;;11.13;;
43248;SDS011;29216;51.248;6.808;2023-05-15T11:21:47;17.42;;;12.55;;
43248;SDS011;29216;51.248;6.808;2023-05-15T11:24:18;19.25;;;13.80;;
43248;SDS011;29216;51.248;6.808;2023-05-15T11:26:44;16.58;;;12.65;;
43248;SDS011;29216;51.248;6.808;2023-05-15T11:29:19;16.15;;;13.55;;
43248;SDS011;29216;51.248;6.808;2023-05-15T11:31:45;16.05;;;12.82;;
43248;SDS011;29216;51.248;6.808;2023-05-15T11:34:11;15.57;;;11.45;;
43248;SDS011;29216;51.248;6.808;2023-05-15T11:36:38;14.60;;;11.25;;
43248;SDS011;29216;51.248;6.808;2023-05-15T11:39:10;16.92;;;11.13;;
43248;SDS011;29216;51.248;6.808;2023-05-15T11:41:36;14.33;;;10.83;;
43248;SDS011;29216;51.248;6.808;2023-05-15T11:44:03;16.13;;;11.35;;
43248;SDS011;29216;51.248;6.808;2023-05-15T11:46:29;13.38;;;11.00;;
43248;SDS011;29216;51.248;6.808;2023-05-15T11:48:56;12.07;;;9.77;;
43248;SDS011;29216;51.248;6.808;2023-05-15T11:51:23;13.02;;;9.50;;
43248;SDS011;29216;51.248;6.808;2023-05-15T11:53:50;14.57;;;11.30;;
43248;SDS011;29216;51.248;6.808;2023-05-15T11:56:20;15.32;;;11.18;;
43248;SDS011;29216;51.248;6.808;2023-05-15T11:58:56;18.55;;;9.63;;
43248;SDS011;29216;51.248;6.808;2023-05-15T12:01:22;11.55;;;8.52;;
43248;SDS011;29216;51.248;6.808;2023-05-15T12:03:48;12.88;;;7.18;;
43248;SDS011;29216;51.248;6.808;2023-05-15T12:06:15;12.38;;;7.80;;
43248;SDS011;29216;51.248;6.808;2023-05-15T12:08:41;11.38;;;8.85;;
43248;SDS011;29216;51.248;6.808;2023-05-15T12:11:07;12.98;;;7.70;;
43248;SDS011;29216;51.248;6.808;2023-05-15T12:13:33;12.98;;;8.60;;
43248;SDS011;29216;51.248;6.808;2023-05-15T12:16:00;12.00;;;8.77;;
43248;SDS011;29216;51.248;6.808;2023-05-15T12:18:27;14.13;;;9.98;;
43248;SDS011;29216;51.248;6.808;2023-05-15T12:20:53;15.25;;;10.32;;
43248;SDS011;29216;51.248;6.808;2023-05-15T12:23:26;14.40;;;9.98;;
43248;SDS011;29216;51.248;6.808;2023-05-15T12:25:54;15.95;;;11.10;;
43248;SDS011;29216;51.248;6.808;2023-05-15T12:28:22;15.57;;;10.63;;
43248;SDS011;29216;51.248;6.808;2023-05-15T12:30:48;12.20;;;10.50;;
43248;SDS011;29216;51.248;6.808;2023-05-15T12:33:14;18.35;;;12.07;;
43248;SDS011;29216;51.248;6.808;2023-05-15T12:35:41;13.18;;;11.00;;
43248;SDS011;29216;51.248;6.808;2023-05-15T12:38:08;19.35;;;9.43;;
43248;SDS011;29216;51.248;6.808;2023-05-15T12:40:39;12.27;;;8.45;;
43248;SDS011;29216;51.248;6.808;2023-05-15T12:43:06;13.63;;;8.02;;
43248;SDS011;29216;51.248;6.808;2023-05-15T12:45:32;14.40;;;10.23;;
43248;SDS011;29216;51.248;6.808;2023-05-15T12:48:00;9.82;;;7.93;;
43248;SDS011;29216;51.248;6.808;2023-05-15T12:50:27;10.52;;;7.63;;
43248;SDS011;29216;51.248;6.808;2023-05-15T12:52:59;8.93;;;7.03;;
43248;SDS011;29216;51.248;6.808;2023-05-15T12:57:52;12.32;;;8.48;;
43248;SDS011;29216;51.248;6.808;2023-05-15T13:00:19;14.18;;;9.05;;
43248;SDS011;29216;51.248;6.808;2023-05-15T13:02:51;10.45;;;7.55;;
43248;SDS011;29216;51.248;6.808;2023-05-15T13:05:17;12.00;;;8.75;;
43248;SDS011;29216;51.248;6.808;2023-05-15T13:07:43;11.00;;;8.00;;
43248;SDS011;29216;51.248;6.808;2023-05-15T13:10:10;11.77;;;8.93;;
43248;SDS011;29216;51.248;6.808;2023-05-15T13:12:37;10.57;;;8.65;;
43248;SDS011;29216;51.248;6.808;2023-05-15T13:15:04;12.02;;;8.27;;
43248;SDS011;29216;51.248;6.808;2023-05-15T13:17:33;12.10;;;8.95;;
43248;SDS011;29216;51.248;6.808;2023-05-15T13:20:00;11.48;;;8.60;;
43248;SDS011;29216;51.248;6.808;2023-05-15T13:22:26;13.90;;;8.52;;
43248;SDS011;29216;51.248;6.808;2023-05-15T13:24:52;11.43;;;7.38;;
43248;SDS011;29216;51.248;6.808;2023-05-15T13:27:18;11.75;;;7.60;;
43248;SDS011;29216;51.248;6.808;2023-05-15T13:29:44;9.60;;;6.82;;
43248;SDS011;29216;51.248;6.808;2023-05-15T13:32:10;9.60;;;7.90;;
43248;SDS011;29216;51.248;6.808;2023-05-15T13:34:36;9.90;;;8.32;;
43248;SDS011;29216;51.248;6.808;2023-05-15T13:37:02;8.88;;;6.70;;
43248;SDS011;29216;51.248;6.808;2023-05-15T13:39:28;10.18;;;7.57;;
43248;SDS011;29216;51.248;6.808;2023-05-15T13:41:54;13.73;;;10.93;;
43248;SDS011;29216;51.248;6.808;2023-05-15T13:44:20;14.18;;;11.73;;
43248;SDS011;29216;51.248;6.808;2023-05-15T13:46:46;14.73;;;11.18;;
43248;SDS011;29216;51.248;6.808;2023-05-15T13:49:12;16.60;;;12.45;;
43248;SDS011;29216;51.248;6.808;2023-05-15T13:51:38;14.07;;;11.85;;
43248;SDS011;29216;51.248;6.808;2023-05-15T13:54:04;12.30;;;10.35;;
43248;SDS011;29216;51.248;6.808;2023-05-15T13:56:31;13.45;;;11.48;;
43248;SDS011;29216;51.248;6.808;2023-05-15T13:58:57;16.88;;;12.80;;
43248;SDS011;29216;51.248;6.808;2023-05-15T14:01:22;15.90;;;12.75;;
43248;SDS011;29216;51.248;6.808;2023-05-15T14:03:49;15.30;;;12.55;;
43248;SDS011;29216;51.248;6.808;2023-05-15T14:06:15;15.88;;;12.75;;
43248;SDS011;29216;51.248;6.808;2023-05-15T14:08:41;17.50;;;13.55;;
43248;SDS011;29216;51.248;6.808;2023-05-15T14:11:06;13.80;;;11.77;;
43248;SDS011;29216;51.248;6.808;2023-05-15T14:13:33;16.13;;;13.70;;
43248;SDS011;29216;51.248;6.808;2023-05-15T14:15:59;15.30;;;13.15;;
43248;SDS011;29216;51.248;6.808;2023-05-15T14:18:25;14.90;;;12.45;;
43248;SDS011;29216;51.248;6.808;2023-05-15T14:20:51;15.38;;;11.73;;
43248;SDS011;29216;51.248;6.808;2023-05-15T14:23:17;16.90;;;12.00;;
43248;SDS011;29216;51.248;6.808;2023-05-15T14:25:43;13.73;;;10.10;;
43248;SDS011;29216;51.248;6.808;2023-05-15T14:28:10;15.50;;;11.45;;
43248;SDS011;29216;51.248;6.808;2023-05-15T14:30:36;13.32;;;11.10;;
43248;SDS011;29216;51.248;6.808;2023-05-15T14:33:02;14.15;;;11.45;;
43248;SDS011;29216;51.248;6.808;2023-05-15T14:35:28;17.90;;;12.88;;
43248;SDS011;29216;51.248;6.808;2023-05-15T14:37:55;17.13;;;12.38;;
43248;SDS011;29216;51.248;6.808;2023-05-15T14:40:21;14.77;;;12.30;;
43248;SDS011;29216;51.248;6.808;2023-05-15T14:42:47;16.27;;;12.30;;
43248;SDS011;29216;51.248;6.808;2023-05-15T14:45:13;16.00;;;11.77;;
43248;SDS011;29216;51.248;6.808;2023-05-15T14:47:39;14.52;;;10.45;;
43248;SDS011;29216;51.248;6.808;2023-05-15T14:50:05;12.60;;;10.63;;
43248;SDS011;29216;51.248;6.808;2023-05-15T14:52:31;12.63;;;10.48;;
43248;SDS011;29216;51.248;6.808;2023-05-15T14:54:57;22.73;;;10.70;;